SVR262 USSS-UUDD
Flight info
| Callsign | SVR262 |
|---|---|
| Flight time | 2h 9m |
| Altitude | 36000 |
| Route | K0830F360 LUNAG6J LUNAG M864 KERUN P164 IDMOR M864 IBROT T535 OKNAN T787 URAGO URAGO3M |
| Aircraft | A319/M-SDE3FGHIRWY/LB1 |
Departure
| Time | 2026-05-04 06:52 |
|---|---|
| Airport | Koltsovo Airport (USSS) |
Arrival
| Time | 2026-05-04 09:01 |
|---|---|
| Airport | Domodedovo International Airport (UUDD) |
| Time | Latitude | Longitude | Altitude | Speed | Heading |
|---|---|---|---|---|---|
| 2026-05-04 06:27 | 56.74770 | 60.79771 | 777 ft | 0 kts | 180° |
| 2026-05-04 06:45 | 56.74756 | 60.79771 | 770 ft | 4 kts | 180° |
| 2026-05-04 06:45 | 56.74736 | 60.79722 | 770 ft | 6 kts | 254° |
| 2026-05-04 06:45 | 56.74734 | 60.79639 | 770 ft | 8 kts | 271° |
| 2026-05-04 06:45 | 56.74735 | 60.79534 | 770 ft | 9 kts | 270° |
| 2026-05-04 06:46 | 56.74735 | 60.79393 | 770 ft | 14 kts | 269° |
| 2026-05-04 06:46 | 56.74727 | 60.79213 | 770 ft | 13 kts | 244° |
| 2026-05-04 06:46 | 56.74663 | 60.79145 | 770 ft | 9 kts | 248° |
| 2026-05-04 06:46 | 56.74662 | 60.79028 | 770 ft | 10 kts | 271° |
| 2026-05-04 06:48 | 56.74598 | 60.78148 | 770 ft | 0 kts | 180° |
| 2026-05-04 06:48 | 56.74588 | 60.78148 | 770 ft | 3 kts | 180° |
| 2026-05-04 06:49 | 56.74543 | 60.78148 | 770 ft | 9 kts | 180° |
| 2026-05-04 06:50 | 56.74252 | 60.77990 | 769 ft | 8 kts | 188° |
| 2026-05-04 06:51 | 56.74225 | 60.78070 | 769 ft | 9 kts | 91° |
| 2026-05-04 06:51 | 56.74221 | 60.78208 | 770 ft | 15 kts | 94° |
| 2026-05-04 06:51 | 56.74196 | 60.78844 | 770 ft | 94 kts | 94° |
| 2026-05-04 06:51 | 56.74128 | 60.80528 | 801 ft | 165 kts | 94° |
| 2026-05-04 06:52 | 56.74040 | 60.82691 | 1483 ft | 174 kts | 95° |
| 2026-05-04 06:52 | 56.73974 | 60.84917 | 2412 ft | 179 kts | 92° |
| 2026-05-04 06:52 | 56.73961 | 60.87322 | 2870 ft | 201 kts | 90° |
| 2026-05-04 06:52 | 56.73961 | 60.90014 | 3231 ft | 227 kts | 91° |
| 2026-05-04 06:53 | 56.73953 | 60.93091 | 3612 ft | 258 kts | 91° |
| 2026-05-04 06:53 | 56.73940 | 60.96408 | 4512 ft | 268 kts | 92° |
| 2026-05-04 06:53 | 56.73916 | 60.99818 | 5571 ft | 265 kts | 93° |
| 2026-05-04 06:53 | 56.73764 | 61.03162 | 6515 ft | 270 kts | 109° |
| 2026-05-04 06:54 | 56.72768 | 61.06041 | 7197 ft | 274 kts | 142° |
| 2026-05-04 06:54 | 56.71055 | 61.07485 | 7975 ft | 275 kts | 175° |
| 2026-05-04 06:54 | 56.69217 | 61.06958 | 8995 ft | 269 kts | 208° |
| 2026-05-04 06:54 | 56.67896 | 61.04646 | 10011 ft | 269 kts | 240° |
| 2026-05-04 06:55 | 56.67498 | 61.01300 | 10766 ft | 281 kts | 273° |
| 2026-05-04 06:55 | 56.68066 | 60.97791 | 11337 ft | 302 kts | 289° |
| 2026-05-04 06:55 | 56.68905 | 60.94130 | 11708 ft | 323 kts | 290° |
| 2026-05-04 06:55 | 56.69741 | 60.90290 | 12409 ft | 330 kts | 287° |
| 2026-05-04 06:56 | 56.70477 | 60.86370 | 13214 ft | 333 kts | 284° |
| 2026-05-04 06:57 | 56.74301 | 60.56530 | 18281 ft | 359 kts | 281° |
| 2026-05-04 06:58 | 56.74852 | 60.52067 | 18922 ft | 363 kts | 281° |
| 2026-05-04 06:58 | 56.75407 | 60.47559 | 19572 ft | 366 kts | 281° |
| 2026-05-04 06:58 | 56.75932 | 60.43005 | 20218 ft | 369 kts | 279° |
| 2026-05-04 06:58 | 56.76421 | 60.38394 | 20889 ft | 372 kts | 279° |
| 2026-05-04 06:59 | 56.76892 | 60.33743 | 21525 ft | 375 kts | 278° |
| 2026-05-04 06:59 | 56.77359 | 60.29041 | 22156 ft | 378 kts | 278° |
| 2026-05-04 06:59 | 56.77827 | 60.24303 | 22782 ft | 381 kts | 278° |
| 2026-05-04 06:59 | 56.78301 | 60.19528 | 23394 ft | 384 kts | 278° |
| 2026-05-04 07:01 | 56.80611 | 59.84869 | 26676 ft | 404 kts | 275° |
| 2026-05-04 07:01 | 56.80908 | 59.79744 | 27114 ft | 407 kts | 275° |
| 2026-05-04 07:02 | 56.81215 | 59.74588 | 27552 ft | 410 kts | 276° |
| 2026-05-04 07:02 | 56.81526 | 59.69394 | 27989 ft | 413 kts | 276° |
| 2026-05-04 07:02 | 56.81836 | 59.64161 | 28422 ft | 416 kts | 276° |
| 2026-05-04 07:02 | 56.82143 | 59.58892 | 28837 ft | 419 kts | 276° |
| 2026-05-04 07:03 | 56.82447 | 59.53576 | 29251 ft | 422 kts | 275° |
| 2026-05-04 07:03 | 56.82749 | 59.48236 | 29659 ft | 425 kts | 275° |
| 2026-05-04 07:03 | 56.83051 | 59.42857 | 30033 ft | 427 kts | 275° |
| 2026-05-04 07:03 | 56.83351 | 59.37440 | 30347 ft | 430 kts | 275° |
| 2026-05-04 07:04 | 56.83648 | 59.32071 | 30653 ft | 432 kts | 275° |
| 2026-05-04 07:04 | 56.83949 | 59.26599 | 30982 ft | 433 kts | 276° |
| 2026-05-04 07:04 | 56.84249 | 59.21111 | 31308 ft | 435 kts | 276° |
| 2026-05-04 07:04 | 56.84549 | 59.15529 | 31620 ft | 437 kts | 275° |
| 2026-05-04 07:05 | 56.84840 | 59.10013 | 32031 ft | 436 kts | 275° |
| 2026-05-04 07:05 | 56.85103 | 59.04573 | 32461 ft | 435 kts | 274° |
| 2026-05-04 07:05 | 56.85282 | 58.99067 | 32850 ft | 435 kts | 273° |
| 2026-05-04 07:05 | 56.85390 | 58.93540 | 33198 ft | 436 kts | 272° |
| 2026-05-04 07:06 | 56.85511 | 58.82471 | 34010 ft | 435 kts | 271° |
| 2026-05-04 07:06 | 56.85573 | 58.76954 | 34364 ft | 434 kts | 271° |
| 2026-05-04 07:06 | 56.85650 | 58.71451 | 34706 ft | 433 kts | 271° |
| 2026-05-04 07:07 | 56.85739 | 58.65954 | 35031 ft | 433 kts | 271° |
| 2026-05-04 07:08 | 56.86307 | 58.27820 | 35895 ft | 424 kts | 271° |
| 2026-05-04 07:09 | 56.86373 | 58.22427 | 35901 ft | 424 kts | 271° |
| 2026-05-04 07:09 | 56.86503 | 58.11648 | 35905 ft | 424 kts | 271° |
| 2026-05-04 07:10 | 56.86631 | 58.00874 | 35903 ft | 424 kts | 271° |
| 2026-05-04 07:12 | 56.87026 | 57.57688 | 35896 ft | 425 kts | 271° |
| 2026-05-04 07:12 | 56.87113 | 57.46873 | 35896 ft | 426 kts | 271° |
| 2026-05-04 07:13 | 56.87182 | 57.36057 | 35898 ft | 425 kts | 271° |
| 2026-05-04 07:13 | 56.87237 | 57.25246 | 35901 ft | 425 kts | 271° |
| 2026-05-04 07:14 | 56.87333 | 56.98281 | 35896 ft | 425 kts | 271° |
| 2026-05-04 07:15 | 56.87364 | 56.87467 | 35904 ft | 425 kts | 271° |
| 2026-05-04 07:15 | 56.87382 | 56.76572 | 35898 ft | 426 kts | 270° |
| 2026-05-04 07:16 | 56.87381 | 56.65810 | 35897 ft | 426 kts | 270° |
| 2026-05-04 07:16 | 56.87371 | 56.54978 | 35896 ft | 426 kts | 270° |
| 2026-05-04 07:17 | 56.87355 | 56.44132 | 35887 ft | 427 kts | 270° |
| 2026-05-04 07:17 | 56.87424 | 56.33290 | 35893 ft | 427 kts | 271° |
| 2026-05-04 07:18 | 56.87566 | 56.22452 | 35893 ft | 426 kts | 272° |
| 2026-05-04 07:18 | 56.87694 | 56.11609 | 35895 ft | 427 kts | 271° |
| 2026-05-04 07:19 | 56.87781 | 56.00764 | 35894 ft | 427 kts | 271° |
| 2026-05-04 07:19 | 56.87842 | 55.89921 | 35899 ft | 426 kts | 271° |
| 2026-05-04 07:20 | 56.87767 | 55.79077 | 35887 ft | 426 kts | 269° |
| 2026-05-04 07:20 | 56.87591 | 55.68246 | 35892 ft | 426 kts | 269° |
| 2026-05-04 07:22 | 56.86964 | 55.26683 | 35903 ft | 426 kts | 269° |
| 2026-05-04 07:23 | 56.86783 | 55.15857 | 35907 ft | 426 kts | 269° |
| 2026-05-04 07:23 | 56.86589 | 55.05031 | 35902 ft | 426 kts | 269° |
| 2026-05-04 07:24 | 56.86390 | 54.94213 | 35903 ft | 426 kts | 269° |
| 2026-05-04 07:24 | 56.86181 | 54.83387 | 35912 ft | 426 kts | 269° |
| 2026-05-04 07:26 | 56.85417 | 54.40150 | 35911 ft | 425 kts | 270° |
| 2026-05-04 07:27 | 56.85292 | 54.29424 | 35913 ft | 425 kts | 269° |
| 2026-05-04 07:27 | 56.85133 | 54.18626 | 35914 ft | 425 kts | 269° |
| 2026-05-04 07:28 | 56.84944 | 54.07770 | 35917 ft | 425 kts | 269° |
| 2026-05-04 07:28 | 56.84698 | 53.97053 | 35923 ft | 425 kts | 268° |
| 2026-05-04 07:29 | 56.84430 | 53.86262 | 35919 ft | 425 kts | 268° |
| 2026-05-04 07:29 | 56.84157 | 53.75473 | 35919 ft | 425 kts | 268° |
| 2026-05-04 07:30 | 56.83875 | 53.64689 | 35908 ft | 425 kts | 268° |
| 2026-05-04 07:30 | 56.83589 | 53.53903 | 35913 ft | 425 kts | 268° |
| 2026-05-04 07:31 | 56.83309 | 53.43101 | 35915 ft | 426 kts | 269° |
| 2026-05-04 07:33 | 56.83356 | 52.99891 | 35920 ft | 426 kts | 270° |
| 2026-05-04 07:33 | 56.83312 | 52.89076 | 35914 ft | 426 kts | 270° |
| 2026-05-04 07:34 | 56.83253 | 52.78258 | 35921 ft | 426 kts | 270° |
| 2026-05-04 07:34 | 56.83167 | 52.67439 | 35929 ft | 426 kts | 270° |
| 2026-05-04 07:35 | 56.83075 | 52.56623 | 35933 ft | 426 kts | 270° |
| 2026-05-04 07:35 | 56.82980 | 52.45822 | 35935 ft | 425 kts | 270° |
| 2026-05-04 07:36 | 56.82880 | 52.35030 | 35934 ft | 425 kts | 270° |
| 2026-05-04 07:38 | 56.83064 | 51.91904 | 35920 ft | 425 kts | 272° |
| 2026-05-04 07:38 | 56.83251 | 51.81118 | 35922 ft | 425 kts | 272° |
| 2026-05-04 07:39 | 56.83381 | 51.70402 | 35937 ft | 425 kts | 271° |
| 2026-05-04 07:39 | 56.83494 | 51.59560 | 35940 ft | 424 kts | 271° |
| 2026-05-04 07:40 | 56.83501 | 51.48883 | 35936 ft | 423 kts | 268° |
| 2026-05-04 07:40 | 56.83120 | 51.38169 | 35928 ft | 423 kts | 265° |
| 2026-05-04 07:41 | 56.82602 | 51.27476 | 35925 ft | 422 kts | 265° |
| 2026-05-04 07:41 | 56.82137 | 51.16794 | 35922 ft | 422 kts | 266° |
| 2026-05-04 07:42 | 56.81719 | 51.06110 | 35911 ft | 422 kts | 266° |
| 2026-05-04 07:42 | 56.81301 | 50.95430 | 35911 ft | 422 kts | 266° |
| 2026-05-04 07:43 | 56.80858 | 50.84744 | 35911 ft | 422 kts | 266° |
| 2026-05-04 07:43 | 56.80401 | 50.74069 | 35905 ft | 422 kts | 266° |
| 2026-05-04 07:44 | 56.79943 | 50.63398 | 35917 ft | 421 kts | 266° |
| 2026-05-04 07:44 | 56.79474 | 50.52753 | 35916 ft | 421 kts | 266° |
| 2026-05-04 07:45 | 56.78993 | 50.42118 | 35920 ft | 420 kts | 265° |
| 2026-05-04 07:45 | 56.78503 | 50.31496 | 35914 ft | 420 kts | 265° |
| 2026-05-04 07:46 | 56.78003 | 50.20880 | 35912 ft | 420 kts | 265° |
| 2026-05-04 07:46 | 56.77500 | 50.10266 | 35897 ft | 420 kts | 265° |
| 2026-05-04 07:47 | 56.77007 | 49.99636 | 35902 ft | 421 kts | 265° |
| 2026-05-04 07:49 | 56.75446 | 49.57109 | 35922 ft | 419 kts | 268° |
| 2026-05-04 07:49 | 56.75195 | 49.46579 | 35912 ft | 418 kts | 268° |
| 2026-05-04 07:50 | 56.74884 | 49.35994 | 35897 ft | 418 kts | 268° |
| 2026-05-04 07:50 | 56.74567 | 49.25411 | 35895 ft | 418 kts | 268° |
| 2026-05-04 07:51 | 56.74250 | 49.14836 | 35892 ft | 418 kts | 268° |
| 2026-05-04 07:51 | 56.73928 | 49.04260 | 35892 ft | 418 kts | 268° |
| 2026-05-04 07:52 | 56.73596 | 48.93676 | 35893 ft | 418 kts | 268° |
| 2026-05-04 07:52 | 56.73247 | 48.83102 | 35893 ft | 418 kts | 267° |
| 2026-05-04 07:54 | 56.71787 | 48.40907 | 35910 ft | 416 kts | 267° |
| 2026-05-04 07:55 | 56.71404 | 48.30394 | 35904 ft | 416 kts | 267° |
| 2026-05-04 07:55 | 56.71004 | 48.19881 | 35907 ft | 416 kts | 267° |
| 2026-05-04 07:56 | 56.70602 | 48.09381 | 35909 ft | 416 kts | 267° |
| 2026-05-04 07:56 | 56.70198 | 47.98884 | 35909 ft | 416 kts | 267° |
| 2026-05-04 07:57 | 56.69785 | 47.88392 | 35893 ft | 416 kts | 267° |
| 2026-05-04 07:57 | 56.69360 | 47.77898 | 35908 ft | 416 kts | 266° |
| 2026-05-04 07:58 | 56.68919 | 47.67413 | 35911 ft | 415 kts | 266° |
| 2026-05-04 07:58 | 56.68472 | 47.56935 | 35910 ft | 415 kts | 266° |
| 2026-05-04 07:59 | 56.68019 | 47.46470 | 35910 ft | 415 kts | 266° |
| 2026-05-04 07:59 | 56.67561 | 47.36094 | 35883 ft | 411 kts | 266° |
| 2026-05-04 08:00 | 56.66595 | 47.25917 | 35907 ft | 417 kts | 252° |
| 2026-05-04 08:02 | 56.58599 | 46.86243 | 35910 ft | 418 kts | 251° |
| 2026-05-04 08:02 | 56.56589 | 46.76354 | 35910 ft | 418 kts | 251° |
| 2026-05-04 08:03 | 56.54568 | 46.66474 | 35894 ft | 418 kts | 252° |
| 2026-05-04 08:03 | 56.52538 | 46.56601 | 35896 ft | 418 kts | 251° |
| 2026-05-04 08:04 | 56.50505 | 46.46731 | 35905 ft | 418 kts | 252° |
| 2026-05-04 08:04 | 56.48462 | 46.36883 | 35907 ft | 418 kts | 251° |
| 2026-05-04 08:05 | 56.46408 | 46.27046 | 35905 ft | 418 kts | 251° |
| 2026-05-04 08:05 | 56.44346 | 46.17222 | 35905 ft | 418 kts | 251° |
| 2026-05-04 08:06 | 56.42277 | 46.07411 | 35884 ft | 418 kts | 251° |
| 2026-05-04 08:06 | 56.40202 | 45.97610 | 35890 ft | 418 kts | 251° |
| 2026-05-04 08:08 | 56.32166 | 45.60106 | 35897 ft | 419 kts | 251° |
| 2026-05-04 08:11 | 56.22575 | 45.16189 | 35887 ft | 419 kts | 251° |
| 2026-05-04 08:11 | 56.19347 | 45.01578 | 35899 ft | 419 kts | 251° |
| 2026-05-04 08:12 | 56.17181 | 44.91855 | 35904 ft | 419 kts | 251° |
| 2026-05-04 08:12 | 56.15011 | 44.82155 | 35904 ft | 419 kts | 251° |
| 2026-05-04 08:13 | 56.12836 | 44.72483 | 35903 ft | 418 kts | 251° |
| 2026-05-04 08:13 | 56.11115 | 44.62615 | 35896 ft | 413 kts | 264° |
| 2026-05-04 08:14 | 56.10508 | 44.52417 | 35897 ft | 412 kts | 266° |
| 2026-05-04 08:16 | 56.08015 | 44.11608 | 35884 ft | 412 kts | 265° |
| 2026-05-04 08:16 | 56.07369 | 44.01412 | 35888 ft | 412 kts | 265° |
| 2026-05-04 08:17 | 56.06710 | 43.91216 | 35893 ft | 412 kts | 265° |
| 2026-05-04 08:17 | 56.06045 | 43.81029 | 35897 ft | 412 kts | 265° |
| 2026-05-04 08:19 | 56.03318 | 43.40432 | 35897 ft | 412 kts | 265° |
| 2026-05-04 08:20 | 56.02915 | 43.30262 | 35888 ft | 409 kts | 274° |
| 2026-05-04 08:20 | 56.03099 | 43.20093 | 35888 ft | 409 kts | 274° |
| 2026-05-04 08:21 | 56.03268 | 43.09916 | 35888 ft | 409 kts | 274° |
| 2026-05-04 08:21 | 56.03425 | 42.99744 | 35889 ft | 409 kts | 273° |
| 2026-05-04 08:22 | 56.03569 | 42.89566 | 35876 ft | 409 kts | 273° |
| 2026-05-04 08:24 | 56.03739 | 42.53909 | 35888 ft | 413 kts | 262° |
| 2026-05-04 08:24 | 56.03015 | 42.48928 | 35889 ft | 416 kts | 252° |
| 2026-05-04 08:24 | 56.00832 | 42.39319 | 35891 ft | 417 kts | 251° |
| 2026-05-04 08:25 | 55.98637 | 42.29717 | 35894 ft | 418 kts | 251° |
| 2026-05-04 08:25 | 55.96442 | 42.20116 | 35878 ft | 418 kts | 251° |
| 2026-05-04 08:27 | 55.87535 | 41.81877 | 35898 ft | 420 kts | 246° |
| 2026-05-04 08:28 | 55.84076 | 41.73447 | 35902 ft | 428 kts | 229° |
| 2026-05-04 08:28 | 55.79933 | 41.65851 | 35885 ft | 428 kts | 230° |
| 2026-05-04 08:29 | 55.75743 | 41.58137 | 35569 ft | 443 kts | 230° |
| 2026-05-04 08:29 | 55.73599 | 41.54191 | 35315 ft | 444 kts | 230° |
| 2026-05-04 08:31 | 55.59457 | 41.26710 | 31358 ft | 412 kts | 247° |
| 2026-05-04 08:33 | 55.57341 | 40.93731 | 27796 ft | 373 kts | 271° |
| 2026-05-04 08:33 | 55.57248 | 40.89169 | 27344 ft | 370 kts | 271° |
| 2026-05-04 08:35 | 55.56596 | 40.58244 | 24301 ft | 349 kts | 271° |
| 2026-05-04 08:35 | 55.56501 | 40.53968 | 23872 ft | 346 kts | 271° |
| 2026-05-04 08:35 | 55.56407 | 40.49728 | 23393 ft | 345 kts | 271° |
| 2026-05-04 08:35 | 55.56309 | 40.45509 | 22899 ft | 342 kts | 271° |
| 2026-05-04 08:37 | 55.55623 | 40.20908 | 20237 ft | 328 kts | 270° |
| 2026-05-04 08:37 | 55.55506 | 40.16889 | 19783 ft | 327 kts | 270° |
| 2026-05-04 08:37 | 55.55387 | 40.12881 | 19355 ft | 326 kts | 270° |
| 2026-05-04 08:38 | 55.55267 | 40.08881 | 18920 ft | 326 kts | 270° |
| 2026-05-04 08:38 | 55.55146 | 40.04887 | 18489 ft | 325 kts | 270° |
| 2026-05-04 08:38 | 55.55029 | 40.00900 | 18035 ft | 325 kts | 271° |
| 2026-05-04 08:40 | 55.56433 | 39.73199 | 15691 ft | 319 kts | 278° |
| 2026-05-04 08:40 | 55.56634 | 39.69315 | 15369 ft | 317 kts | 278° |
| 2026-05-04 08:40 | 55.56831 | 39.65452 | 15048 ft | 315 kts | 278° |
| 2026-05-04 08:41 | 55.57025 | 39.61612 | 14727 ft | 313 kts | 278° |
| 2026-05-04 08:41 | 55.57219 | 39.57798 | 14412 ft | 311 kts | 278° |
| 2026-05-04 08:41 | 55.57413 | 39.54007 | 14095 ft | 309 kts | 277° |
| 2026-05-04 08:41 | 55.57346 | 39.50207 | 13810 ft | 311 kts | 265° |
| 2026-05-04 08:42 | 55.56970 | 39.46443 | 13594 ft | 311 kts | 263° |
| 2026-05-04 08:42 | 55.56598 | 39.42690 | 13367 ft | 310 kts | 263° |
| 2026-05-04 08:42 | 55.56228 | 39.38949 | 13142 ft | 309 kts | 263° |
| 2026-05-04 08:42 | 55.55859 | 39.35224 | 12927 ft | 308 kts | 263° |
| 2026-05-04 08:43 | 55.55488 | 39.31512 | 12708 ft | 307 kts | 263° |
| 2026-05-04 08:43 | 55.55114 | 39.27809 | 12493 ft | 306 kts | 263° |
| 2026-05-04 08:43 | 55.54738 | 39.24122 | 12275 ft | 305 kts | 263° |
| 2026-05-04 08:43 | 55.54365 | 39.20444 | 12057 ft | 304 kts | 263° |
| 2026-05-04 08:44 | 55.53994 | 39.16782 | 11847 ft | 303 kts | 263° |
| 2026-05-04 08:44 | 55.53624 | 39.13140 | 11631 ft | 301 kts | 262° |
| 2026-05-04 08:46 | 55.50972 | 38.87972 | 10202 ft | 295 kts | 261° |
| 2026-05-04 08:46 | 55.50527 | 38.84500 | 10035 ft | 286 kts | 254° |
| 2026-05-04 08:46 | 55.49653 | 38.81385 | 9840 ft | 282 kts | 237° |
| 2026-05-04 08:46 | 55.48327 | 38.78818 | 9772 ft | 285 kts | 224° |
| 2026-05-04 08:47 | 55.46819 | 38.76537 | 9713 ft | 286 kts | 223° |
| 2026-05-04 08:47 | 55.45311 | 38.74264 | 9634 ft | 285 kts | 223° |
| 2026-05-04 08:47 | 55.43805 | 38.72000 | 9530 ft | 284 kts | 223° |
| 2026-05-04 08:47 | 55.42299 | 38.69744 | 9426 ft | 284 kts | 223° |
| 2026-05-04 08:48 | 55.40796 | 38.67492 | 9321 ft | 283 kts | 223° |
| 2026-05-04 08:48 | 55.39295 | 38.65243 | 9217 ft | 283 kts | 223° |
| 2026-05-04 08:48 | 55.37799 | 38.62999 | 9105 ft | 283 kts | 223° |
| 2026-05-04 08:48 | 55.36304 | 38.60757 | 9003 ft | 282 kts | 223° |
| 2026-05-04 08:49 | 55.34813 | 38.58523 | 8895 ft | 282 kts | 223° |
| 2026-05-04 08:50 | 55.25886 | 38.45234 | 8265 ft | 279 kts | 223° |
| 2026-05-04 08:50 | 55.24407 | 38.43033 | 8163 ft | 279 kts | 224° |
| 2026-05-04 08:51 | 55.23153 | 38.40501 | 8063 ft | 273 kts | 241° |
| 2026-05-04 08:51 | 55.22419 | 38.37470 | 7908 ft | 271 kts | 257° |
| 2026-05-04 08:51 | 55.22246 | 38.34183 | 7292 ft | 269 kts | 276° |
| 2026-05-04 08:51 | 55.22499 | 38.30967 | 6682 ft | 265 kts | 279° |
| 2026-05-04 08:52 | 55.22669 | 38.28860 | 6266 ft | 263 kts | 279° |
| 2026-05-04 08:52 | 55.22915 | 38.25693 | 5567 ft | 262 kts | 279° |
| 2026-05-04 08:52 | 55.23154 | 38.22535 | 4875 ft | 262 kts | 278° |
| 2026-05-04 08:52 | 55.23384 | 38.19424 | 4462 ft | 250 kts | 279° |
| 2026-05-04 08:53 | 55.23598 | 38.16517 | 4296 ft | 230 kts | 279° |
| 2026-05-04 08:54 | 55.28303 | 38.03750 | 3186 ft | 172 kts | 324° |
| 2026-05-04 08:55 | 55.29285 | 38.02577 | 2957 ft | 168 kts | 325° |
| 2026-05-04 08:55 | 55.30211 | 38.01474 | 2744 ft | 149 kts | 324° |
| 2026-05-04 08:55 | 55.31014 | 38.00515 | 2554 ft | 132 kts | 323° |
| 2026-05-04 08:55 | 55.31756 | 37.99628 | 2387 ft | 127 kts | 323° |
| 2026-05-04 08:57 | 55.36723 | 37.93659 | 1161 ft | 125 kts | 323° |
| 2026-05-04 09:01 | 55.40846 | 37.89096 | 573 ft | 19 kts | 145° |
| 2026-05-04 09:01 | 55.40780 | 37.89296 | 571 ft | 21 kts | 89° |
| 2026-05-04 09:01 | 55.40848 | 37.89523 | 577 ft | 22 kts | 44° |
| 2026-05-04 09:01 | 55.40943 | 37.89740 | 570 ft | 23 kts | 55° |
| 2026-05-04 09:02 | 55.41036 | 37.89979 | 570 ft | 24 kts | 56° |
| 2026-05-04 09:02 | 55.41112 | 37.90176 | 572 ft | 13 kts | 56° |
| 2026-05-04 09:02 | 55.41161 | 37.90304 | 572 ft | 10 kts | 65° |
| 2026-05-04 09:02 | 55.41124 | 37.90391 | 567 ft | 11 kts | 155° |
| 2026-05-04 09:03 | 55.41077 | 37.90450 | 565 ft | 6 kts | 74° |
| 2026-05-04 09:03 | 55.41084 | 37.90463 | 565 ft | 0 kts | 49° |
| 2026-05-04 09:03 | 55.41082 | 37.90458 | 565 ft | 5 kts | 38° |
| 2026-05-04 09:03 | 55.41049 | 37.90463 | 571 ft | 5 kts | 323° |
| 2026-05-04 09:04 | 55.41026 | 37.90511 | 572 ft | 5 kts | 293° |
| 2026-05-04 09:04 | 55.41002 | 37.90551 | 573 ft | 0 kts | 323° |